createdAt,value
2022-10-23T00:00:24.255Z,13.80
2022-10-23T00:01:31.324Z,13.80
2022-10-23T00:02:33.828Z,13.80
2022-10-23T00:03:37.318Z,13.70
2022-10-23T00:04:39.902Z,13.70
2022-10-23T00:05:43.393Z,13.70
2022-10-23T00:06:47.241Z,13.70
2022-10-23T00:07:52.426Z,13.70
2022-10-23T00:08:57.546Z,13.70
2022-10-23T00:10:00.983Z,13.70
2022-10-23T00:11:10.041Z,13.70
2022-10-23T00:12:18.140Z,13.70
2022-10-23T00:13:25.701Z,13.60
2022-10-23T00:14:31.424Z,13.60
2022-10-23T00:15:36.969Z,13.60
2022-10-23T00:16:40.585Z,13.60
2022-10-23T00:17:45.129Z,13.60
2022-10-23T00:18:54.059Z,13.60
2022-10-23T00:19:56.594Z,13.60
2022-10-23T00:21:00.457Z,13.60
2022-10-23T00:22:02.883Z,13.60
2022-10-23T00:23:08.615Z,13.60
2022-10-23T00:24:11.314Z,13.60
2022-10-23T00:25:16.463Z,13.50
2022-10-23T00:26:22.137Z,13.50
2022-10-23T00:27:24.804Z,13.50
2022-10-23T00:28:28.707Z,13.50
2022-10-23T00:29:31.171Z,13.50
2022-10-23T00:30:34.681Z,13.50
2022-10-23T00:31:40.620Z,13.50
2022-10-23T00:32:44.204Z,13.50
2022-10-23T00:33:47.446Z,13.50
2022-10-23T00:34:51.137Z,13.50
2022-10-23T00:35:54.253Z,13.50
2022-10-23T00:36:58.194Z,13.50
2022-10-23T00:38:00.677Z,13.50
2022-10-23T00:39:09.679Z,13.50
2022-10-23T00:40:13.163Z,13.40
2022-10-23T00:41:21.199Z,13.40
2022-10-23T00:42:24.983Z,13.40
2022-10-23T00:43:31.467Z,13.40
2022-10-23T00:45:24.137Z,13.40
2022-10-23T00:46:27.236Z,13.40
2022-10-23T00:47:30.768Z,13.40
2022-10-23T00:48:33.430Z,13.40
2022-10-23T00:49:42.024Z,13.40
2022-10-23T00:50:47.804Z,13.40
2022-10-23T00:51:54.295Z,13.40
2022-10-23T00:53:04.985Z,13.40
2022-10-23T00:54:25.106Z,13.40
2022-10-23T00:55:29.198Z,13.40
2022-10-23T00:56:37.069Z,13.40
2022-10-23T00:57:45.055Z,13.40
2022-10-23T00:58:50.113Z,13.40
2022-10-23T00:59:53.759Z,13.40
2022-10-23T01:00:58.238Z,13.40
2022-10-23T01:02:01.417Z,13.40
2022-10-23T01:03:05.485Z,13.40
2022-10-23T01:04:09.274Z,13.40
2022-10-23T01:05:13.175Z,13.40
2022-10-23T01:06:28.075Z,13.40
2022-10-23T01:07:40.213Z,13.40
2022-10-23T01:08:53.986Z,13.40
2022-10-23T01:10:06.390Z,13.40
2022-10-23T01:11:18.862Z,13.40
2022-10-23T01:12:34.265Z,13.40
2022-10-23T01:13:50.753Z,13.30
2022-10-23T01:15:03.913Z,13.40
2022-10-23T01:16:19.756Z,13.30
2022-10-23T01:17:31.413Z,13.30
2022-10-23T01:18:42.922Z,13.40
2022-10-23T01:19:59.324Z,13.30
2022-10-23T01:21:08.537Z,13.30
2022-10-23T01:22:33.320Z,13.30
2022-10-23T01:24:08.997Z,13.30
2022-10-23T01:25:29.350Z,13.30
2022-10-23T01:27:00.771Z,13.30
2022-10-23T01:28:10.507Z,13.30
2022-10-23T01:29:21.274Z,13.30
2022-10-23T01:30:23.796Z,13.30
2022-10-23T01:31:37.145Z,13.30
2022-10-23T01:32:49.012Z,13.30
2022-10-23T01:34:00.096Z,13.30
2022-10-23T01:35:12.003Z,13.30
2022-10-23T01:36:18.132Z,13.30
2022-10-23T01:37:29.328Z,13.30
2022-10-23T01:38:43.327Z,13.30
2022-10-23T01:39:59.968Z,13.30
2022-10-23T01:41:11.944Z,13.30
2022-10-23T01:42:23.489Z,13.30
2022-10-23T01:43:30.457Z,13.30
2022-10-23T01:44:39.453Z,13.30
2022-10-23T01:45:47.911Z,13.30
2022-10-23T01:46:55.985Z,13.30
2022-10-23T01:48:04.079Z,13.20
2022-10-23T01:49:13.549Z,13.20
2022-10-23T01:50:20.944Z,13.20
2022-10-23T01:51:29.033Z,13.20
2022-10-23T01:52:39.037Z,13.20
2022-10-23T01:53:45.480Z,13.20
2022-10-23T01:54:53.991Z,13.20
2022-10-23T01:55:58.167Z,13.20
2022-10-23T01:57:06.391Z,13.20
2022-10-23T01:58:10.571Z,13.20
2022-10-23T01:59:25.386Z,13.20
2022-10-23T02:00:28.672Z,13.20
2022-10-23T02:01:34.442Z,13.10
2022-10-23T02:02:39.466Z,13.10
2022-10-23T02:03:45.397Z,13.10
2022-10-23T02:04:59.203Z,13.10
2022-10-23T02:06:03.015Z,13.10
2022-10-23T02:07:05.860Z,13.10
2022-10-23T02:08:09.585Z,13.10
2022-10-23T02:09:12.962Z,13.10
2022-10-23T02:10:18.047Z,13.10
2022-10-23T02:11:23.206Z,13.10
2022-10-23T02:12:39.588Z,13.10
2022-10-23T02:13:50.715Z,13.10
2022-10-23T02:15:04.777Z,13.10
2022-10-23T02:16:19.522Z,13.10
2022-10-23T02:17:30.700Z,13.10
2022-10-23T02:18:40.588Z,13.10
2022-10-23T02:19:51.557Z,13.00
2022-10-23T02:21:05.229Z,13.00
2022-10-23T02:22:15.558Z,13.00
2022-10-23T02:23:26.292Z,13.00
2022-10-23T02:24:37.648Z,13.00
2022-10-23T02:25:54.811Z,13.00
2022-10-23T02:27:03.976Z,13.00
2022-10-23T02:28:10.863Z,13.00
2022-10-23T02:29:25.999Z,13.00
2022-10-23T02:30:32.121Z,13.00
2022-10-23T02:31:45.102Z,13.00
2022-10-23T02:32:52.251Z,13.00
2022-10-23T02:33:55.840Z,13.00
2022-10-23T02:34:58.729Z,13.00
2022-10-23T02:36:05.372Z,13.00
2022-10-23T02:37:08.092Z,13.00
2022-10-23T02:38:32.387Z,13.00
2022-10-23T02:39:34.974Z,13.00
2022-10-23T02:40:45.341Z,13.00
2022-10-23T02:41:57.243Z,13.00
2022-10-23T02:43:09.566Z,12.90
2022-10-23T02:44:26.180Z,13.00
2022-10-23T02:45:36.251Z,12.90
2022-10-23T02:46:51.242Z,12.90
2022-10-23T02:48:06.305Z,12.90
2022-10-23T02:49:17.140Z,12.90
2022-10-23T02:50:28.593Z,12.90
2022-10-23T02:51:42.124Z,12.90
2022-10-23T02:52:55.589Z,12.90
2022-10-23T02:54:06.504Z,12.90
2022-10-23T02:55:24.958Z,12.90
2022-10-23T02:56:38.713Z,12.90
2022-10-23T02:57:54.280Z,12.90
2022-10-23T02:59:06.514Z,12.90
2022-10-23T03:00:17.377Z,12.90
2022-10-23T03:01:28.830Z,12.90
2022-10-23T03:02:38.355Z,12.90
2022-10-23T03:03:48.499Z,12.90
2022-10-23T03:04:56.136Z,12.90
2022-10-23T03:06:02.828Z,12.90
2022-10-23T03:07:05.968Z,12.90
2022-10-23T03:08:11.519Z,12.90
2022-10-23T03:09:14.177Z,12.90
2022-10-23T03:10:19.647Z,12.90
2022-10-23T03:11:23.147Z,12.90
2022-10-23T03:12:26.787Z,12.80
2022-10-23T03:13:30.483Z,12.80
2022-10-23T03:14:33.171Z,12.80
2022-10-23T03:15:38.298Z,12.80
2022-10-23T03:16:42.222Z,12.80
2022-10-23T03:17:46.172Z,12.80
2022-10-23T03:18:50.892Z,12.80
2022-10-23T03:19:55.007Z,12.80
2022-10-23T03:20:58.883Z,12.80
2022-10-23T03:22:01.409Z,12.80
2022-10-23T03:23:05.373Z,12.80
2022-10-23T03:24:08.660Z,12.80
2022-10-23T03:25:20.695Z,12.80
2022-10-23T03:26:23.372Z,12.80
2022-10-23T03:28:38.669Z,12.80
2022-10-23T03:29:41.564Z,12.80
2022-10-23T03:30:48.246Z,12.80
2022-10-23T03:31:54.152Z,12.80
2022-10-23T03:32:58.138Z,12.80
2022-10-23T03:34:02.251Z,12.80
2022-10-23T03:35:08.657Z,12.80
2022-10-23T03:36:12.168Z,12.80
2022-10-23T03:37:19.658Z,12.80
2022-10-23T03:38:23.051Z,12.80
2022-10-23T03:39:25.498Z,12.80
2022-10-23T03:40:29.050Z,12.80
2022-10-23T03:41:32.311Z,12.80
2022-10-23T03:42:35.840Z,12.80
2022-10-23T03:43:38.355Z,12.80
2022-10-23T03:44:43.084Z,12.80
2022-10-23T03:45:45.494Z,12.80
2022-10-23T03:46:49.051Z,12.80
2022-10-23T03:47:53.907Z,12.80
2022-10-23T03:48:58.273Z,12.80
2022-10-23T03:50:01.680Z,12.70
2022-10-23T03:51:04.982Z,12.80
2022-10-23T03:52:11.283Z,12.80
2022-10-23T03:53:13.842Z,12.80
2022-10-23T03:54:20.897Z,12.70
2022-10-23T03:55:25.699Z,12.80
2022-10-23T03:56:29.601Z,12.70
2022-10-23T03:57:32.605Z,12.80
2022-10-23T03:58:36.301Z,12.80
2022-10-23T03:59:38.756Z,12.80
2022-10-23T04:01:53.763Z,12.80
2022-10-23T04:02:58.784Z,12.70
2022-10-23T04:04:03.933Z,12.80
2022-10-23T04:05:08.514Z,12.70
2022-10-23T04:06:11.231Z,12.70
2022-10-23T04:07:17.550Z,12.70
2022-10-23T04:08:21.870Z,12.70
2022-10-23T04:09:28.959Z,12.70
2022-10-23T04:10:35.191Z,12.70
2022-10-23T04:11:43.242Z,12.70
2022-10-23T04:12:50.359Z,12.70
2022-10-23T04:13:53.848Z,12.70
2022-10-23T04:14:56.475Z,12.70
2022-10-23T04:16:00.044Z,12.70
2022-10-23T04:17:06.693Z,12.70
2022-10-23T04:18:13.848Z,12.70
2022-10-23T04:19:17.258Z,12.70
2022-10-23T04:20:23.275Z,12.70
2022-10-23T04:21:27.626Z,12.70
2022-10-23T04:22:31.024Z,12.70
2022-10-23T04:23:34.786Z,12.70
2022-10-23T04:24:41.324Z,12.70
2022-10-23T04:25:44.041Z,12.70
2022-10-23T04:26:47.686Z,12.70
2022-10-23T04:28:35.550Z,12.70
2022-10-23T04:30:55.706Z,12.70
2022-10-23T04:32:48.686Z,12.70
2022-10-23T04:35:02.080Z,12.70
2022-10-23T04:36:37.515Z,12.70
2022-10-23T04:38:49.248Z,12.70
2022-10-23T04:40:50.395Z,12.70
2022-10-23T04:42:50.909Z,12.70
2022-10-23T04:45:15.345Z,12.70
2022-10-23T04:49:09.486Z,12.70
2022-10-23T04:53:14.601Z,12.70
2022-10-23T04:56:24.386Z,12.80
2022-10-23T04:57:35.574Z,12.80
2022-10-23T04:58:43.056Z,12.80
2022-10-23T04:59:47.946Z,12.80
2022-10-23T05:00:52.396Z,12.80
2022-10-23T05:02:01.269Z,12.80
2022-10-23T05:03:05.560Z,12.80
2022-10-23T05:04:14.893Z,12.80
2022-10-23T05:05:36.778Z,12.80
2022-10-23T05:06:59.085Z,12.80
2022-10-23T05:08:32.535Z,12.80
2022-10-23T05:09:55.265Z,12.80
2022-10-23T05:11:15.498Z,12.80
2022-10-23T05:12:25.506Z,12.80
2022-10-23T05:13:29.280Z,12.90
2022-10-23T05:14:33.870Z,12.90
2022-10-23T05:15:39.808Z,12.90
2022-10-23T05:16:48.299Z,12.90
2022-10-23T05:17:56.680Z,12.90
2022-10-23T05:19:02.386Z,12.90
2022-10-23T05:20:13.867Z,13.00
2022-10-23T05:21:23.441Z,13.00
2022-10-23T05:22:30.605Z,13.00
2022-10-23T05:23:39.438Z,13.00
2022-10-23T05:24:44.850Z,13.00
2022-10-23T05:25:50.439Z,13.00
2022-10-23T05:26:55.485Z,13.00
2022-10-23T05:28:02.354Z,13.10
2022-10-23T05:29:05.067Z,13.10
2022-10-23T05:30:10.631Z,13.10
2022-10-23T05:31:14.773Z,13.10
2022-10-23T05:32:23.822Z,13.10
2022-10-23T05:33:26.554Z,13.10
2022-10-23T05:34:34.554Z,13.10
2022-10-23T05:35:38.786Z,13.20
2022-10-23T05:36:44.681Z,13.20
2022-10-23T05:37:51.468Z,13.20
2022-10-23T05:39:01.715Z,13.20
2022-10-23T05:40:05.230Z,13.20
2022-10-23T05:41:11.358Z,13.20
2022-10-23T05:42:13.883Z,13.20
2022-10-23T05:43:21.356Z,13.30
2022-10-23T05:44:37.884Z,13.30
2022-10-23T05:46:13.951Z,13.30
2022-10-23T05:47:33.515Z,13.30
2022-10-23T05:48:53.160Z,13.40
2022-10-23T05:50:18.271Z,13.40
2022-10-23T05:51:23.137Z,13.40
2022-10-23T05:52:55.766Z,13.40
2022-10-23T05:54:19.618Z,13.40
2022-10-23T05:55:46.607Z,13.40
2022-10-23T05:57:09.733Z,13.40
2022-10-23T05:58:23.878Z,13.40
2022-10-23T05:59:36.068Z,13.40
2022-10-23T06:01:18.439Z,13.40
2022-10-23T06:02:35.405Z,13.50
2022-10-23T06:03:49.986Z,13.50
2022-10-23T06:04:57.028Z,13.50
2022-10-23T06:06:25.874Z,13.50
2022-10-23T06:07:33.550Z,13.50
2022-10-23T06:08:41.239Z,13.50
2022-10-23T06:09:43.867Z,13.50
2022-10-23T06:10:49.791Z,13.50
2022-10-23T06:11:53.298Z,13.50
2022-10-23T06:12:59.084Z,13.40
2022-10-23T06:14:03.865Z,13.40
2022-10-23T06:15:12.655Z,13.40
2022-10-23T06:16:37.140Z,13.40
2022-10-23T06:17:42.795Z,13.40
2022-10-23T06:18:47.478Z,13.50
2022-10-23T06:19:54.432Z,13.50
2022-10-23T06:21:00.485Z,13.40
2022-10-23T06:22:05.343Z,13.40
2022-10-23T06:23:21.114Z,13.40
2022-10-23T06:24:55.590Z,13.40
2022-10-23T06:26:03.379Z,13.40
2022-10-23T06:27:12.415Z,13.40
2022-10-23T06:28:20.688Z,13.40
2022-10-23T06:29:28.120Z,13.40
2022-10-23T06:30:31.005Z,13.40
2022-10-23T06:31:35.858Z,13.40
2022-10-23T06:32:39.934Z,13.40
2022-10-23T06:33:49.950Z,13.40
2022-10-23T06:34:53.372Z,13.50
2022-10-23T06:35:59.561Z,13.50
2022-10-23T06:37:03.441Z,13.50
2022-10-23T06:38:21.646Z,13.50
2022-10-23T06:39:32.473Z,13.50
2022-10-23T06:40:57.283Z,13.50
2022-10-23T06:42:17.526Z,13.50
2022-10-23T06:43:26.262Z,13.50
2022-10-23T06:44:54.463Z,13.50
2022-10-23T06:46:18.077Z,13.50
2022-10-23T06:47:40.934Z,13.50
2022-10-23T06:49:03.234Z,13.50
2022-10-23T06:50:13.056Z,13.50
2022-10-23T06:51:22.013Z,13.60
2022-10-23T06:52:45.799Z,13.60
2022-10-23T06:53:52.144Z,13.60
2022-10-23T06:55:13.333Z,13.60
2022-10-23T06:56:18.863Z,13.60
2022-10-23T06:57:21.565Z,13.60
2022-10-23T06:58:27.877Z,13.60
2022-10-23T06:59:39.496Z,13.60
2022-10-23T07:00:46.641Z,13.70
2022-10-23T07:01:58.532Z,13.70
2022-10-23T07:03:01.865Z,13.70
2022-10-23T07:04:07.368Z,13.70
2022-10-23T07:05:13.540Z,13.70
2022-10-23T07:06:19.722Z,13.70
2022-10-23T07:07:22.352Z,13.70
2022-10-23T07:08:26.856Z,13.70
2022-10-23T07:09:32.908Z,13.70
2022-10-23T07:10:59.657Z,13.80
2022-10-23T07:12:02.231Z,13.80
2022-10-23T07:13:16.780Z,13.80
2022-10-23T07:14:47.074Z,13.80
2022-10-23T07:15:55.267Z,13.80
2022-10-23T07:17:01.488Z,13.80
2022-10-23T07:18:05.829Z,13.90
2022-10-23T07:19:29.196Z,13.90
2022-10-23T07:20:34.940Z,13.90
2022-10-23T07:21:38.928Z,13.90
2022-10-23T07:23:03.006Z,14.00
2022-10-23T07:24:12.715Z,14.00
2022-10-23T07:25:17.472Z,14.00
2022-10-23T07:26:23.235Z,14.00
2022-10-23T07:27:26.902Z,14.10
2022-10-23T07:28:33.432Z,14.10
2022-10-23T07:29:36.461Z,14.10
2022-10-23T07:30:43.563Z,14.10
2022-10-23T07:31:52.446Z,14.10
2022-10-23T07:33:13.942Z,14.20
2022-10-23T07:34:27.112Z,14.20
2022-10-23T07:35:48.563Z,14.20
2022-10-23T07:37:00.370Z,14.20
2022-10-23T07:38:05.662Z,14.20
2022-10-23T07:39:14.366Z,14.20
2022-10-23T07:40:24.847Z,14.30
2022-10-23T07:41:31.744Z,14.30
2022-10-23T07:42:35.332Z,14.30
2022-10-23T07:43:39.813Z,14.30
2022-10-23T07:44:44.466Z,14.30
2022-10-23T07:45:50.931Z,14.30
2022-10-23T07:47:08.126Z,14.30
2022-10-23T07:48:11.478Z,14.40
2022-10-23T07:49:34.886Z,14.40
2022-10-23T07:50:39.142Z,14.40
2022-10-23T07:51:47.678Z,14.40
2022-10-23T07:52:54.318Z,14.40
2022-10-23T07:55:24.327Z,14.40
2022-10-23T07:56:37.093Z,14.40
2022-10-23T07:57:51.915Z,14.40
2022-10-23T07:59:14.845Z,14.50
2022-10-23T08:02:41.656Z,14.50
2022-10-23T08:03:48.760Z,14.50
2022-10-23T08:06:05.563Z,14.60
2022-10-23T08:07:08.962Z,14.60
2022-10-23T08:08:18.695Z,14.60
2022-10-23T08:09:26.261Z,14.60
2022-10-23T08:10:30.347Z,14.60
2022-10-23T08:11:37.527Z,14.60
2022-10-23T08:13:48.937Z,14.70
2022-10-23T08:14:55.284Z,14.70
2022-10-23T08:15:59.642Z,14.70
2022-10-23T08:17:24.024Z,14.80
2022-10-23T08:18:41.481Z,14.80
2022-10-23T08:19:46.599Z,14.80
2022-10-23T08:20:52.609Z,14.80
2022-10-23T08:21:57.189Z,14.80
2022-10-23T08:23:02.990Z,14.80
2022-10-23T08:24:06.697Z,14.80
2022-10-23T08:25:11.712Z,14.80
2022-10-23T08:26:15.608Z,14.80
2022-10-23T08:27:22.379Z,14.80
2022-10-23T08:28:26.454Z,14.80
2022-10-23T08:29:33.778Z,14.80
2022-10-23T08:30:37.751Z,14.80
2022-10-23T08:31:42.780Z,14.80
2022-10-23T08:33:19.634Z,14.80
2022-10-23T08:34:24.186Z,14.90
2022-10-23T08:35:29.612Z,14.90
2022-10-23T08:36:36.513Z,14.90
2022-10-23T08:37:41.309Z,14.90
2022-10-23T08:38:45.215Z,14.90
2022-10-23T08:39:56.657Z,14.90
2022-10-23T08:41:29.258Z,14.90
2022-10-23T08:42:44.805Z,14.90
2022-10-23T08:43:56.196Z,14.90
2022-10-23T08:45:30.406Z,14.90
2022-10-23T08:46:51.495Z,14.90
2022-10-23T08:48:25.312Z,15.00
2022-10-23T08:50:08.340Z,15.00
2022-10-23T08:51:19.468Z,15.00
2022-10-23T08:52:31.320Z,15.00
2022-10-23T08:53:45.357Z,15.00
2022-10-23T08:55:04.848Z,15.10
2022-10-23T08:56:14.442Z,15.10
2022-10-23T08:57:25.261Z,15.10
2022-10-23T08:58:39.051Z,15.20
2022-10-23T08:59:48.716Z,15.20
2022-10-23T09:00:53.838Z,15.20
2022-10-23T09:02:06.243Z,15.30
2022-10-23T09:03:15.121Z,15.30
2022-10-23T09:04:20.281Z,15.40
2022-10-23T09:05:32.417Z,15.40
2022-10-23T09:06:39.940Z,15.50
2022-10-23T09:08:14.897Z,15.50
2022-10-23T09:09:57.184Z,15.50
2022-10-23T09:11:07.206Z,15.60
2022-10-23T09:12:16.770Z,15.60
2022-10-23T09:13:58.418Z,15.60
2022-10-23T09:15:31.759Z,15.60
2022-10-23T09:17:04.245Z,15.60
2022-10-23T09:18:16.046Z,15.60
2022-10-23T09:19:24.752Z,15.70
2022-10-23T09:20:34.497Z,15.60
2022-10-23T09:21:37.590Z,15.60
2022-10-23T09:22:43.196Z,15.60
2022-10-23T09:23:48.171Z,15.60
2022-10-23T09:24:53.794Z,15.60
2022-10-23T09:26:01.391Z,15.60
2022-10-23T09:28:18.565Z,15.60
2022-10-23T09:29:27.545Z,15.60
2022-10-23T09:30:35.941Z,15.60
2022-10-23T09:31:50.050Z,15.60
2022-10-23T09:32:54.089Z,15.50
2022-10-23T09:34:01.430Z,15.50
2022-10-23T09:35:07.654Z,15.50
2022-10-23T09:36:25.913Z,15.50
2022-10-23T09:37:33.196Z,15.50
2022-10-23T09:38:39.657Z,15.50
2022-10-23T09:39:43.661Z,15.50
2022-10-23T09:40:47.919Z,15.50
2022-10-23T09:41:54.132Z,15.50
2022-10-23T09:43:06.294Z,15.40
2022-10-23T09:44:20.845Z,15.40
2022-10-23T09:45:30.429Z,15.40
2022-10-23T09:46:44.694Z,15.40
2022-10-23T09:47:48.217Z,15.40
2022-10-23T09:49:03.481Z,15.40
2022-10-23T09:50:23.283Z,15.40
2022-10-23T09:51:30.151Z,15.40
2022-10-23T09:52:38.155Z,15.40
2022-10-23T09:53:53.090Z,15.40
2022-10-23T09:55:01.395Z,15.40
2022-10-23T09:56:24.609Z,15.40
2022-10-23T09:57:37.238Z,15.50
2022-10-23T09:58:55.553Z,15.50
2022-10-23T10:00:04.143Z,15.50
2022-10-23T10:01:26.753Z,15.50
2022-10-23T10:02:37.080Z,15.50
2022-10-23T10:03:51.955Z,15.50
2022-10-23T10:04:59.832Z,15.50
2022-10-23T10:06:07.013Z,15.60
2022-10-23T10:07:23.023Z,15.60
2022-10-23T10:08:44.415Z,15.60
2022-10-23T10:09:47.759Z,15.70
2022-10-23T10:10:57.903Z,15.70
2022-10-23T10:12:51.270Z,15.70
2022-10-23T10:14:43.692Z,15.70
2022-10-23T10:15:53.993Z,15.80
2022-10-23T10:17:05.989Z,15.80
2022-10-23T10:18:19.814Z,15.90
2022-10-23T10:19:44.873Z,15.90
2022-10-23T10:21:05.927Z,15.90
2022-10-23T10:22:26.223Z,15.90
2022-10-23T10:23:40.642Z,15.90
2022-10-23T10:24:53.942Z,16.00
2022-10-23T10:26:09.707Z,16.00
2022-10-23T10:27:30.022Z,16.00
2022-10-23T10:28:55.478Z,16.00
2022-10-23T10:30:10.559Z,16.00
2022-10-23T10:31:26.164Z,16.10
2022-10-23T10:32:44.217Z,16.10
2022-10-23T10:34:02.733Z,16.10
2022-10-23T10:35:35.794Z,16.10
2022-10-23T10:36:51.478Z,16.20
2022-10-23T10:38:28.521Z,16.20
2022-10-23T10:39:44.449Z,16.20
2022-10-23T10:41:06.311Z,16.20
2022-10-23T10:42:55.688Z,16.30
2022-10-23T10:44:35.390Z,16.30
2022-10-23T10:45:43.316Z,16.40
2022-10-23T10:46:56.572Z,16.40
2022-10-23T10:48:26.951Z,16.40
2022-10-23T10:50:03.516Z,16.50
2022-10-23T10:51:28.798Z,16.50
2022-10-23T10:52:40.172Z,16.50
2022-10-23T10:54:03.757Z,16.60
2022-10-23T10:55:20.307Z,16.60
2022-10-23T10:56:28.426Z,16.60
2022-10-23T10:57:38.783Z,16.60
2022-10-23T10:58:52.372Z,16.70
2022-10-23T11:00:00.650Z,16.70
2022-10-23T11:01:12.893Z,16.70
2022-10-23T11:02:27.936Z,16.70
2022-10-23T11:03:42.700Z,16.80
2022-10-23T11:04:52.861Z,16.80
2022-10-23T11:07:13.350Z,16.90
2022-10-23T11:08:22.450Z,16.90
2022-10-23T11:09:29.935Z,17.00
2022-10-23T11:10:41.704Z,17.00
2022-10-23T11:11:44.981Z,17.00
2022-10-23T11:12:51.893Z,17.10
2022-10-23T11:13:54.965Z,17.10
2022-10-23T11:14:59.177Z,17.10
2022-10-23T11:16:12.610Z,17.20
2022-10-23T11:17:24.279Z,17.20
2022-10-23T11:18:31.842Z,17.30
2022-10-23T11:19:42.746Z,17.30
2022-10-23T11:21:09.375Z,17.30
2022-10-23T11:22:23.292Z,17.40
2022-10-23T11:24:06.179Z,17.40
2022-10-23T11:25:48.442Z,17.40
2022-10-23T11:27:23.942Z,17.50
2022-10-23T11:28:52.079Z,17.50
2022-10-23T11:30:18.741Z,17.60
2022-10-23T11:31:33.501Z,17.70
2022-10-23T11:33:16.143Z,17.80
2022-10-23T11:35:05.675Z,17.90
2022-10-23T11:36:17.710Z,18.00
2022-10-23T11:37:24.591Z,18.20
2022-10-23T11:38:31.136Z,18.30
2022-10-23T11:39:36.586Z,18.40
2022-10-23T11:41:57.462Z,18.60
2022-10-23T11:43:00.385Z,18.70
2022-10-23T11:44:05.806Z,18.80
2022-10-23T11:45:35.355Z,18.90
2022-10-23T11:46:40.045Z,19.00
2022-10-23T11:47:43.951Z,19.10
2022-10-23T11:48:49.895Z,19.30
2022-10-23T11:50:26.885Z,19.40
2022-10-23T11:51:33.366Z,19.60
2022-10-23T11:52:45.693Z,19.80
2022-10-23T11:54:28.878Z,19.90
2022-10-23T11:55:33.320Z,20.10
2022-10-23T11:56:39.799Z,20.20
2022-10-23T11:57:43.291Z,20.20
2022-10-23T11:58:51.812Z,20.30
2022-10-23T11:59:56.542Z,20.40
2022-10-23T12:01:06.889Z,20.40
2022-10-23T12:02:37.658Z,20.40
2022-10-23T12:03:53.630Z,20.50
2022-10-23T12:05:01.021Z,20.50
2022-10-23T12:06:07.544Z,20.40
2022-10-23T12:07:24.087Z,20.40
2022-10-23T12:08:35.259Z,20.40
2022-10-23T12:09:45.491Z,20.40
2022-10-23T12:10:53.405Z,20.40
2022-10-23T12:12:18.848Z,20.40
2022-10-23T12:13:44.721Z,20.40
2022-10-23T12:14:51.583Z,20.30
2022-10-23T12:15:58.517Z,20.20
2022-10-23T12:17:20.273Z,20.20
2022-10-23T12:18:24.345Z,20.10
2022-10-23T12:19:31.364Z,20.10
2022-10-23T12:20:47.144Z,20.00
2022-10-23T12:21:54.407Z,20.00
2022-10-23T12:23:28.593Z,19.90
2022-10-23T12:25:03.141Z,19.80
2022-10-23T12:26:28.311Z,19.70
2022-10-23T12:27:43.989Z,19.60
2022-10-23T12:28:57.321Z,19.60
2022-10-23T12:30:22.268Z,19.50
2022-10-23T12:31:44.293Z,19.50
2022-10-23T12:33:19.126Z,19.50
2022-10-23T12:34:41.651Z,19.50
2022-10-23T12:36:23.339Z,19.50
2022-10-23T12:37:52.650Z,19.40
2022-10-23T12:38:58.691Z,19.50
2022-10-23T12:40:03.565Z,19.50
2022-10-23T12:41:14.667Z,19.50
2022-10-23T12:42:26.886Z,19.40
2022-10-23T12:43:38.632Z,19.40
2022-10-23T12:44:43.714Z,19.40
2022-10-23T12:45:47.481Z,19.40
2022-10-23T12:46:58.337Z,19.40
2022-10-23T12:48:02.314Z,19.40
2022-10-23T12:49:16.162Z,19.40
2022-10-23T12:50:21.823Z,19.40
2022-10-23T12:51:29.598Z,19.40
2022-10-23T12:52:36.188Z,19.50
2022-10-23T12:53:40.520Z,19.50
2022-10-23T12:54:44.668Z,19.50
2022-10-23T12:55:55.061Z,19.50
2022-10-23T12:56:58.101Z,19.60
2022-10-23T12:58:03.875Z,19.60
2022-10-23T12:59:17.661Z,19.60
2022-10-23T13:00:25.578Z,19.60
2022-10-23T13:01:31.629Z,19.70
2022-10-23T13:02:37.269Z,19.70
2022-10-23T13:03:41.702Z,19.70
2022-10-23T13:04:49.785Z,19.70
2022-10-23T13:05:56.155Z,19.70
2022-10-23T13:07:05.946Z,19.70
2022-10-23T13:08:11.212Z,19.70
2022-10-23T13:09:30.175Z,19.70
2022-10-23T13:10:59.730Z,19.70
2022-10-23T13:12:08.641Z,19.70
2022-10-23T13:13:14.169Z,19.80
2022-10-23T13:14:39.468Z,19.80
2022-10-23T13:15:47.267Z,19.80
2022-10-23T13:17:01.180Z,19.80
2022-10-23T13:18:08.241Z,19.80
2022-10-23T13:19:24.585Z,19.80
2022-10-23T13:20:31.420Z,19.80
2022-10-23T13:21:37.988Z,19.80
2022-10-23T13:22:43.698Z,19.80
2022-10-23T13:23:49.468Z,19.90
2022-10-23T13:24:52.467Z,19.90
2022-10-23T13:25:59.093Z,19.90
2022-10-23T13:27:02.725Z,19.90
2022-10-23T13:28:26.185Z,19.90
2022-10-23T13:29:37.328Z,19.90
2022-10-23T13:30:43.503Z,19.90
2022-10-23T13:31:47.921Z,19.90
2022-10-23T13:32:53.459Z,19.90
2022-10-23T13:34:24.564Z,19.90
2022-10-23T13:35:31.228Z,19.90
2022-10-23T13:36:39.497Z,19.90
2022-10-23T13:38:59.902Z,19.90
2022-10-23T13:40:07.620Z,19.90
2022-10-23T13:41:15.835Z,20.00
2022-10-23T13:42:22.123Z,20.00
2022-10-23T13:43:28.209Z,20.00
2022-10-23T13:44:33.242Z,20.00
2022-10-23T13:45:42.626Z,20.00
2022-10-23T13:46:46.813Z,20.00
2022-10-23T13:47:53.202Z,20.00
2022-10-23T13:48:58.966Z,20.00
2022-10-23T13:50:02.961Z,20.00
2022-10-23T13:51:15.220Z,20.00
2022-10-23T13:52:24.697Z,20.00
2022-10-23T13:53:27.450Z,20.00
2022-10-23T13:54:32.542Z,20.00
2022-10-23T13:55:36.843Z,19.90
2022-10-23T13:56:40.408Z,19.90
2022-10-23T13:57:43.981Z,19.90
2022-10-23T13:58:48.888Z,19.90
2022-10-23T13:59:54.219Z,19.90
2022-10-23T14:01:00.001Z,19.90
2022-10-23T14:02:05.815Z,19.90
2022-10-23T14:03:10.659Z,19.90
2022-10-23T14:04:18.054Z,20.00
2022-10-23T14:05:20.786Z,20.00
2022-10-23T14:06:24.949Z,20.00
2022-10-23T14:07:32.806Z,20.00
2022-10-23T14:08:36.000Z,20.00
2022-10-23T14:09:39.564Z,20.00
2022-10-23T14:10:42.023Z,20.00
2022-10-23T14:11:46.276Z,20.00
2022-10-23T14:12:53.707Z,20.00
2022-10-23T14:13:57.644Z,20.00
2022-10-23T14:15:02.613Z,20.00
2022-10-23T14:16:06.458Z,20.10
2022-10-23T14:17:10.152Z,20.10
2022-10-23T14:18:12.604Z,20.20
2022-10-23T14:19:16.543Z,20.20
2022-10-23T14:20:23.235Z,20.40
2022-10-23T14:21:28.363Z,20.40
2022-10-23T14:22:33.047Z,20.50
2022-10-23T14:23:35.872Z,20.50
2022-10-23T14:24:40.141Z,20.60
2022-10-23T14:25:44.753Z,20.60
2022-10-23T14:26:50.869Z,20.70
2022-10-23T14:29:04.473Z,20.80
2022-10-23T14:30:13.925Z,20.90
2022-10-23T14:31:19.810Z,21.00
2022-10-23T14:32:23.311Z,21.10
2022-10-23T14:33:25.940Z,21.20
2022-10-23T14:34:29.542Z,21.30
2022-10-23T14:35:32.047Z,21.30
2022-10-23T14:36:49.288Z,21.30
2022-10-23T14:37:55.943Z,21.30
2022-10-23T14:39:00.352Z,21.30
2022-10-23T14:40:05.568Z,21.20
2022-10-23T14:41:14.603Z,21.10
2022-10-23T14:42:19.235Z,21.00
2022-10-23T14:43:23.233Z,20.90
2022-10-23T14:45:32.509Z,20.80
2022-10-23T14:46:38.474Z,20.70
2022-10-23T14:47:43.875Z,20.60
2022-10-23T14:48:51.044Z,20.60
2022-10-23T14:50:00.503Z,20.50
2022-10-23T14:51:06.377Z,20.40
2022-10-23T14:52:10.902Z,20.30
2022-10-23T14:53:16.806Z,20.30
2022-10-23T14:54:21.043Z,20.20
2022-10-23T14:55:24.123Z,20.20
2022-10-23T14:56:29.482Z,20.10
2022-10-23T14:57:34.067Z,20.10
2022-10-23T14:58:37.433Z,20.00
2022-10-23T14:59:41.155Z,20.00
2022-10-23T15:00:45.705Z,19.90
2022-10-23T15:01:49.596Z,19.90
2022-10-23T15:02:52.468Z,19.80
2022-10-23T15:03:57.064Z,19.80
2022-10-23T15:05:04.912Z,19.80
2022-10-23T15:06:08.547Z,19.70
2022-10-23T15:07:12.539Z,19.70
2022-10-23T15:08:15.235Z,19.60
2022-10-23T15:09:20.334Z,19.60
2022-10-23T15:10:25.667Z,19.50
2022-10-23T15:11:29.628Z,19.50
2022-10-23T15:12:34.459Z,19.40
2022-10-23T15:13:37.273Z,19.40
2022-10-23T15:14:44.056Z,19.40
2022-10-23T15:15:48.363Z,19.30
2022-10-23T15:16:52.846Z,19.30
2022-10-23T15:17:55.660Z,19.30
2022-10-23T15:18:59.372Z,19.20
2022-10-23T15:20:02.446Z,19.20
2022-10-23T15:21:08.343Z,19.20
2022-10-23T15:22:11.463Z,19.10
2022-10-23T15:23:18.067Z,19.10
2022-10-23T15:24:21.265Z,19.10
2022-10-23T15:25:25.792Z,19.10
2022-10-23T15:26:28.287Z,19.00
2022-10-23T15:27:35.352Z,19.00
2022-10-23T15:28:39.678Z,19.00
2022-10-23T15:29:43.224Z,19.00
2022-10-23T15:30:48.926Z,19.00
2022-10-23T15:31:56.828Z,18.90
2022-10-23T15:33:00.732Z,18.90
2022-10-23T15:34:04.962Z,18.90
2022-10-23T15:35:10.092Z,18.90